sensor_id;sensor_type;location;lat;lon;timestamp;pressure;altitude;pressure_sealevel;temperature;humidity
38225;BME280;24025;48.138;11.428;2023-04-23T00:00:52;94982.97;;;14.93;55.04
38225;BME280;24025;48.138;11.428;2023-04-23T00:03:29;94973.41;;;14.92;54.30
38225;BME280;24025;48.138;11.428;2023-04-23T00:06:05;94968.81;;;14.92;54.80
38225;BME280;24025;48.138;11.428;2023-04-23T00:08:40;94971.97;;;14.84;54.67
38225;BME280;24025;48.138;11.428;2023-04-23T00:11:12;94968.09;;;14.88;54.77
38225;BME280;24025;48.138;11.428;2023-04-23T00:13:44;94966.59;;;14.87;54.74
38225;BME280;24025;48.138;11.428;2023-04-23T00:16:18;94959.72;;;14.83;55.00
38225;BME280;24025;48.138;11.428;2023-04-23T00:18:50;94959.72;;;14.83;55.52
38225;BME280;24025;48.138;11.428;2023-04-23T00:21:21;94953.19;;;14.84;56.25
38225;BME280;24025;48.138;11.428;2023-04-23T00:23:53;94959.69;;;14.86;55.28
38225;BME280;24025;48.138;11.428;2023-04-23T00:26:25;94955.44;;;14.89;55.07
38225;BME280;24025;48.138;11.428;2023-04-23T00:28:56;94956.13;;;14.93;55.20
38225;BME280;24025;48.138;11.428;2023-04-23T00:31:28;94948.53;;;14.88;54.98
38225;BME280;24025;48.138;11.428;2023-04-23T00:33:59;94945.81;;;14.91;55.43
38225;BME280;24025;48.138;11.428;2023-04-23T00:36:31;94943.53;;;14.90;55.51
38225;BME280;24025;48.138;11.428;2023-04-23T00:39:02;94942.41;;;14.87;55.67
38225;BME280;24025;48.138;11.428;2023-04-23T00:41:34;94937.81;;;14.88;56.91
38225;BME280;24025;48.138;11.428;2023-04-23T00:44:06;94936.63;;;14.89;56.05
38225;BME280;24025;48.138;11.428;2023-04-23T00:46:37;94944.28;;;14.90;56.62
38225;BME280;24025;48.138;11.428;2023-04-23T00:49:09;94945.09;;;14.87;56.38
38225;BME280;24025;48.138;11.428;2023-04-23T00:51:41;94937.06;;;14.87;56.88
38225;BME280;24025;48.138;11.428;2023-04-23T00:54:12;94934.78;;;14.86;56.52
38225;BME280;24025;48.138;11.428;2023-04-23T00:56:44;94932.84;;;14.86;57.03
38225;BME280;24025;48.138;11.428;2023-04-23T00:59:16;94934.41;;;14.84;57.00
38225;BME280;24025;48.138;11.428;2023-04-23T01:01:47;94934.03;;;14.82;57.03
38225;BME280;24025;48.138;11.428;2023-04-23T01:04:20;94937.94;;;14.77;56.92
38225;BME280;24025;48.138;11.428;2023-04-23T01:06:54;94931.84;;;14.73;57.42
38225;BME280;24025;48.138;11.428;2023-04-23T01:09:26;94926.94;;;14.68;100.00
38225;BME280;24025;48.138;11.428;2023-04-23T01:12:04;94926.94;;;14.68;57.44
38225;BME280;24025;48.138;11.428;2023-04-23T01:14:36;94925.44;;;14.67;57.92
38225;BME280;24025;48.138;11.428;2023-04-23T01:17:09;94918.16;;;14.67;58.03
38225;BME280;24025;48.138;11.428;2023-04-23T01:19:42;94926.19;;;14.67;57.43
38225;BME280;24025;48.138;11.428;2023-04-23T01:22:14;94923.50;;;14.67;57.10
38225;BME280;24025;48.138;11.428;2023-04-23T01:24:47;94928.47;;;14.69;58.03
38225;BME280;24025;48.138;11.428;2023-04-23T01:27:19;94923.88;;;14.66;58.49
38225;BME280;24025;48.138;11.428;2023-04-23T01:29:52;94921.66;;;14.61;59.45
38225;BME280;24025;48.138;11.428;2023-04-23T01:32:24;94914.78;;;14.60;59.94
38225;BME280;24025;48.138;11.428;2023-04-23T01:34:56;94919.75;;;14.61;60.32
38225;BME280;24025;48.138;11.428;2023-04-23T01:37:29;94917.16;;;14.54;60.49
38225;BME280;24025;48.138;11.428;2023-04-23T01:40:00;94923.34;;;14.48;60.09
38225;BME280;24025;48.138;11.428;2023-04-23T01:42:32;94923.78;;;14.42;60.05
38225;BME280;24025;48.138;11.428;2023-04-23T01:45:04;94922.25;;;14.45;60.66
38225;BME280;24025;48.138;11.428;2023-04-23T01:47:39;94920.31;;;14.45;60.91
38225;BME280;24025;48.138;11.428;2023-04-23T01:50:12;94919.91;;;14.47;59.65
38225;BME280;24025;48.138;11.428;2023-04-23T01:52:44;94928.72;;;14.48;60.32
38225;BME280;24025;48.138;11.428;2023-04-23T01:55:16;94922.59;;;14.47;59.31
38225;BME280;24025;48.138;11.428;2023-04-23T01:57:49;94927.94;;;14.51;59.74
38225;BME280;24025;48.138;11.428;2023-04-23T02:00:21;94920.28;;;14.49;59.63
38225;BME280;24025;48.138;11.428;2023-04-23T02:02:53;94930.31;;;14.41;60.66
38225;BME280;24025;48.138;11.428;2023-04-23T02:05:27;94932.31;;;14.34;60.43
38225;BME280;24025;48.138;11.428;2023-04-23T02:07:59;94933.16;;;14.27;60.19
38225;BME280;24025;48.138;11.428;2023-04-23T02:10:30;94932.81;;;14.22;60.33
38225;BME280;24025;48.138;11.428;2023-04-23T02:13:02;94940.19;;;14.14;60.63
38225;BME280;24025;48.138;11.428;2023-04-23T02:15:34;94948.25;;;14.10;60.80
38225;BME280;24025;48.138;11.428;2023-04-23T02:18:08;94949.00;;;14.14;61.47
38225;BME280;24025;48.138;11.428;2023-04-23T02:20:41;94935.94;;;14.16;60.71
38225;BME280;24025;48.138;11.428;2023-04-23T02:23:12;94943.22;;;14.16;60.26
38225;BME280;24025;48.138;11.428;2023-04-23T02:25:44;94944.34;;;14.18;60.60
38225;BME280;24025;48.138;11.428;2023-04-23T02:28:16;94942.03;;;14.21;60.29
38225;BME280;24025;48.138;11.428;2023-04-23T02:30:47;94943.53;;;14.22;60.58
38225;BME280;24025;48.138;11.428;2023-04-23T02:33:19;94943.19;;;14.20;60.81
38225;BME280;24025;48.138;11.428;2023-04-23T02:35:51;94939.50;;;14.06;61.04
38225;BME280;24025;48.138;11.428;2023-04-23T02:38:22;94947.72;;;13.88;62.06
38225;BME280;24025;48.138;11.428;2023-04-23T02:40:54;94939.69;;;13.88;62.25
38225;BME280;24025;48.138;11.428;2023-04-23T02:43:25;94941.59;;;13.88;62.65
38225;BME280;24025;48.138;11.428;2023-04-23T02:45:57;94928.91;;;13.92;62.66
38225;BME280;24025;48.138;11.428;2023-04-23T02:48:28;94941.50;;;13.95;62.52
38225;BME280;24025;48.138;11.428;2023-04-23T02:51:00;94947.66;;;13.92;62.51
38225;BME280;24025;48.138;11.428;2023-04-23T02:53:33;94949.94;;;13.97;62.52
38225;BME280;24025;48.138;11.428;2023-04-23T02:56:05;94943.75;;;14.00;62.88
38225;BME280;24025;48.138;11.428;2023-04-23T02:58:37;94946.81;;;14.02;62.55
38225;BME280;24025;48.138;11.428;2023-04-23T03:01:09;94952.56;;;14.01;62.56
38225;BME280;24025;48.138;11.428;2023-04-23T03:03:40;94952.56;;;14.01;62.81
38225;BME280;24025;48.138;11.428;2023-04-23T03:06:12;94945.63;;;14.03;62.34
38225;BME280;24025;48.138;11.428;2023-04-23T03:08:44;94943.72;;;14.04;62.15
38225;BME280;24025;48.138;11.428;2023-04-23T03:11:16;94942.19;;;14.03;62.36
38225;BME280;24025;48.138;11.428;2023-04-23T03:13:48;94951.09;;;13.96;62.30
38225;BME280;24025;48.138;11.428;2023-04-23T03:16:19;94954.16;;;13.95;62.41
38225;BME280;24025;48.138;11.428;2023-04-23T03:18:51;94951.16;;;13.85;62.86
38225;BME280;24025;48.138;11.428;2023-04-23T03:21:22;94947.72;;;13.88;62.82
38225;BME280;24025;48.138;11.428;2023-04-23T03:23:54;94953.91;;;13.82;63.18
38225;BME280;24025;48.138;11.428;2023-04-23T03:26:26;94950.06;;;13.83;63.34
38225;BME280;24025;48.138;11.428;2023-04-23T03:28:58;94950.81;;;13.83;63.53
38225;BME280;24025;48.138;11.428;2023-04-23T03:31:30;94951.94;;;13.86;63.24
38225;BME280;24025;48.138;11.428;2023-04-23T03:34:01;94956.97;;;13.80;63.51
38225;BME280;24025;48.138;11.428;2023-04-23T03:36:33;94960.78;;;13.83;63.39
38225;BME280;24025;48.138;11.428;2023-04-23T03:39:04;94953.91;;;13.82;63.65
38225;BME280;24025;48.138;11.428;2023-04-23T03:41:36;94954.25;;;13.84;63.72
38225;BME280;24025;48.138;11.428;2023-04-23T03:44:08;94961.13;;;13.85;63.67
38225;BME280;24025;48.138;11.428;2023-04-23T03:46:39;94958.84;;;13.83;63.76
38225;BME280;24025;48.138;11.428;2023-04-23T03:49:11;94957.72;;;13.81;64.03
38225;BME280;24025;48.138;11.428;2023-04-23T03:51:42;94969.63;;;13.76;64.45
38225;BME280;24025;48.138;11.428;2023-04-23T03:54:14;94971.56;;;13.76;64.23
38225;BME280;24025;48.138;11.428;2023-04-23T03:56:45;94972.75;;;13.68;64.59
38225;BME280;24025;48.138;11.428;2023-04-23T03:59:17;94975.84;;;13.70;64.94
38225;BME280;24025;48.138;11.428;2023-04-23T04:01:48;94981.31;;;13.52;65.52
38225;BME280;24025;48.138;11.428;2023-04-23T04:04:20;94986.66;;;13.55;65.68
38225;BME280;24025;48.138;11.428;2023-04-23T04:06:52;94989.41;;;13.45;66.56
38225;BME280;24025;48.138;11.428;2023-04-23T04:09:25;94982.13;;;13.45;66.58
38225;BME280;24025;48.138;11.428;2023-04-23T04:11:57;94991.69;;;13.46;68.29
38225;BME280;24025;48.138;11.428;2023-04-23T04:14:30;94996.44;;;13.14;70.43
38225;BME280;24025;48.138;11.428;2023-04-23T04:17:01;95006.78;;;13.12;72.34
38225;BME280;24025;48.138;11.428;2023-04-23T04:19:33;95004.22;;;12.90;74.64
38225;BME280;24025;48.138;11.428;2023-04-23T04:22:05;95009.66;;;12.69;75.96
38225;BME280;24025;48.138;11.428;2023-04-23T04:24:37;95004.75;;;12.50;78.69
38225;BME280;24025;48.138;11.428;2023-04-23T04:27:08;95012.81;;;12.25;79.75
38225;BME280;24025;48.138;11.428;2023-04-23T04:29:40;95015.50;;;12.17;80.95
38225;BME280;24025;48.138;11.428;2023-04-23T04:32:11;95013.63;;;12.07;82.20
38225;BME280;24025;48.138;11.428;2023-04-23T04:34:44;95005.59;;;12.07;83.81
38225;BME280;24025;48.138;11.428;2023-04-23T04:37:15;95015.91;;;12.05;85.30
38225;BME280;24025;48.138;11.428;2023-04-23T04:39:47;95011.72;;;11.97;85.37
38225;BME280;24025;48.138;11.428;2023-04-23T04:42:18;95010.19;;;12.03;84.81
38225;BME280;24025;48.138;11.428;2023-04-23T04:44:50;95012.88;;;11.96;85.74
38225;BME280;24025;48.138;11.428;2023-04-23T04:47:23;95010.19;;;12.00;84.96
38225;BME280;24025;48.138;11.428;2023-04-23T04:49:54;95011.72;;;12.01;86.64
38225;BME280;24025;48.138;11.428;2023-04-23T04:52:28;95009.44;;;11.99;86.05
38225;BME280;24025;48.138;11.428;2023-04-23T04:54:59;95010.97;;;11.97;86.31
38225;BME280;24025;48.138;11.428;2023-04-23T04:57:31;95015.53;;;11.96;85.65
38225;BME280;24025;48.138;11.428;2023-04-23T05:00:21;95018.22;;;12.03;86.48
38225;BME280;24025;48.138;11.428;2023-04-23T05:02:57;95032.34;;;12.11;85.91
38225;BME280;24025;48.138;11.428;2023-04-23T05:05:29;95027.75;;;12.22;85.32
38225;BME280;24025;48.138;11.428;2023-04-23T05:08:00;95037.66;;;12.18;85.78
38225;BME280;24025;48.138;11.428;2023-04-23T05:10:35;95039.56;;;12.17;85.82
38225;BME280;24025;48.138;11.428;2023-04-23T05:13:07;95044.16;;;12.13;85.56
38225;BME280;24025;48.138;11.428;2023-04-23T05:15:38;95043.00;;;12.18;85.85
38225;BME280;24025;48.138;11.428;2023-04-23T05:18:10;95050.28;;;12.07;85.91
38225;BME280;24025;48.138;11.428;2023-04-23T05:20:41;95050.66;;;11.98;86.50
38225;BME280;24025;48.138;11.428;2023-04-23T05:23:13;95052.16;;;12.10;86.25
38225;BME280;24025;48.138;11.428;2023-04-23T05:25:44;95049.16;;;11.94;87.31
38225;BME280;24025;48.138;11.428;2023-04-23T05:28:16;95056.03;;;11.84;88.41
38225;BME280;24025;48.138;11.428;2023-04-23T05:30:48;95055.25;;;11.87;88.26
38225;BME280;24025;48.138;11.428;2023-04-23T05:33:20;95054.06;;;11.77;88.85
38225;BME280;24025;48.138;11.428;2023-04-23T05:35:52;95066.28;;;11.68;89.94
38225;BME280;24025;48.138;11.428;2023-04-23T05:38:25;95068.53;;;11.62;90.82
38225;BME280;24025;48.138;11.428;2023-04-23T05:40:57;95064.72;;;11.49;91.16
38225;BME280;24025;48.138;11.428;2023-04-23T05:43:29;95060.88;;;11.43;91.57
38225;BME280;24025;48.138;11.428;2023-04-23T05:46:00;95075.75;;;11.44;92.26
38225;BME280;24025;48.138;11.428;2023-04-23T05:48:34;95076.53;;;11.41;93.57
38225;BME280;24025;48.138;11.428;2023-04-23T05:51:06;95068.16;;;11.49;93.91
38225;BME280;24025;48.138;11.428;2023-04-23T05:53:38;95070.81;;;11.42;94.22
38225;BME280;24025;48.138;11.428;2023-04-23T05:56:09;95069.22;;;11.30;94.87
38225;BME280;24025;48.138;11.428;2023-04-23T05:58:41;95069.63;;;11.36;95.79
38225;BME280;24025;48.138;11.428;2023-04-23T06:01:12;95065.81;;;11.23;96.60
38225;BME280;24025;48.138;11.428;2023-04-23T06:03:44;95070.00;;;11.24;97.41
38225;BME280;24025;48.138;11.428;2023-04-23T06:06:16;95058.53;;;11.20;98.32
38225;BME280;24025;48.138;11.428;2023-04-23T06:08:47;95062.78;;;11.31;97.53
38225;BME280;24025;48.138;11.428;2023-04-23T06:11:21;95066.22;;;11.35;98.48
38225;BME280;24025;48.138;11.428;2023-04-23T06:13:52;95067.75;;;11.40;98.34
38225;BME280;24025;48.138;11.428;2023-04-23T06:16:24;95071.94;;;11.48;97.10
38225;BME280;24025;48.138;11.428;2023-04-23T06:18:56;95073.91;;;11.58;95.09
38225;BME280;24025;48.138;11.428;2023-04-23T06:21:27;95075.78;;;11.65;95.16
38225;BME280;24025;48.138;11.428;2023-04-23T06:23:59;95074.28;;;11.75;94.82
38225;BME280;24025;48.138;11.428;2023-04-23T06:26:30;95080.44;;;11.86;94.63
38225;BME280;24025;48.138;11.428;2023-04-23T06:29:03;95079.66;;;11.93;92.99
38225;BME280;24025;48.138;11.428;2023-04-23T06:31:35;95082.75;;;12.02;92.41
38225;BME280;24025;48.138;11.428;2023-04-23T06:34:06;95080.06;;;12.12;92.47
38225;BME280;24025;48.138;11.428;2023-04-23T06:36:38;95076.63;;;12.15;92.26
38225;BME280;24025;48.138;11.428;2023-04-23T06:39:09;95076.22;;;11.99;93.00
38225;BME280;24025;48.138;11.428;2023-04-23T06:41:41;95076.63;;;11.98;93.09
38225;BME280;24025;48.138;11.428;2023-04-23T06:44:12;95068.97;;;11.89;93.50
38225;BME280;24025;48.138;11.428;2023-04-23T06:46:44;95073.56;;;11.99;93.42
38225;BME280;24025;48.138;11.428;2023-04-23T06:49:16;95072.81;;;12.06;94.20
38225;BME280;24025;48.138;11.428;2023-04-23T06:51:48;95070.13;;;12.16;91.20
38225;BME280;24025;48.138;11.428;2023-04-23T06:54:19;95070.13;;;12.24;91.01
38225;BME280;24025;48.138;11.428;2023-04-23T06:56:51;95068.94;;;12.35;90.84
38225;BME280;24025;48.138;11.428;2023-04-23T06:59:22;95067.03;;;12.46;91.68
38225;BME280;24025;48.138;11.428;2023-04-23T07:01:54;95058.22;;;12.57;90.15
38225;BME280;24025;48.138;11.428;2023-04-23T07:04:25;95058.19;;;12.67;89.73
38225;BME280;24025;48.138;11.428;2023-04-23T07:06:57;95057.81;;;12.69;89.39
38225;BME280;24025;48.138;11.428;2023-04-23T07:09:29;95047.44;;;12.85;88.52
38225;BME280;24025;48.138;11.428;2023-04-23T07:12:01;95049.69;;;12.94;88.15
38225;BME280;24025;48.138;11.428;2023-04-23T07:14:33;95052.72;;;13.03;85.99
38225;BME280;24025;48.138;11.428;2023-04-23T07:17:05;95046.56;;;13.10;85.20
38225;BME280;24025;48.138;11.428;2023-04-23T07:19:37;95055.72;;;13.16;85.44
38225;BME280;24025;48.138;11.428;2023-04-23T07:22:08;95055.72;;;13.19;85.52
38225;BME280;24025;48.138;11.428;2023-04-23T07:24:40;95055.31;;;13.24;85.39
38225;BME280;24025;48.138;11.428;2023-04-23T07:27:12;95053.78;;;13.27;85.19
38225;BME280;24025;48.138;11.428;2023-04-23T07:29:43;95049.94;;;13.24;84.82
38225;BME280;24025;48.138;11.428;2023-04-23T07:32:15;95058.75;;;13.25;85.37
38225;BME280;24025;48.138;11.428;2023-04-23T07:34:47;95056.09;;;13.21;86.72
38225;BME280;24025;48.138;11.428;2023-04-23T07:37:18;95060.31;;;13.15;86.22
38225;BME280;24025;48.138;11.428;2023-04-23T07:39:51;95063.00;;;13.12;85.91
38225;BME280;24025;48.138;11.428;2023-04-23T07:42:24;95055.38;;;13.10;86.12
38225;BME280;24025;48.138;11.428;2023-04-23T07:44:56;95053.09;;;13.09;86.36
38225;BME280;24025;48.138;11.428;2023-04-23T07:47:27;95055.72;;;13.12;86.69
38225;BME280;24025;48.138;11.428;2023-04-23T07:49:59;95055.72;;;13.12;86.26
38225;BME280;24025;48.138;11.428;2023-04-23T07:52:30;95064.56;;;13.09;86.43
38225;BME280;24025;48.138;11.428;2023-04-23T07:55:02;95066.19;;;12.82;88.29
38225;BME280;24025;48.138;11.428;2023-04-23T07:57:34;95068.91;;;12.60;90.56
38225;BME280;24025;48.138;11.428;2023-04-23T08:00:06;95055.88;;;12.69;89.26
38225;BME280;24025;48.138;11.428;2023-04-23T08:02:39;95062.38;;;12.75;88.97
38225;BME280;24025;48.138;11.428;2023-04-23T08:05:11;95050.91;;;12.82;88.20
38225;BME280;24025;48.138;11.428;2023-04-23T08:07:43;95045.13;;;12.87;87.87
38225;BME280;24025;48.138;11.428;2023-04-23T08:10:14;95047.75;;;12.98;87.11
38225;BME280;24025;48.138;11.428;2023-04-23T08:12:46;95050.78;;;13.07;88.01
38225;BME280;24025;48.138;11.428;2023-04-23T08:15:18;95057.25;;;13.17;88.30
38225;BME280;24025;48.138;11.428;2023-04-23T08:17:49;95041.56;;;13.22;87.54
38225;BME280;24025;48.138;11.428;2023-04-23T08:20:21;95038.06;;;13.36;85.80
38225;BME280;24025;48.138;11.428;2023-04-23T08:22:53;95043.31;;;13.54;85.79
38225;BME280;24025;48.138;11.428;2023-04-23T08:25:24;95033.97;;;13.73;86.27
38225;BME280;24025;48.138;11.428;2023-04-23T08:27:56;95022.38;;;13.90;86.41
38225;BME280;24025;48.138;11.428;2023-04-23T08:30:27;95018.00;;;14.07;83.56
38225;BME280;24025;48.138;11.428;2023-04-23T08:32:59;95019.78;;;14.24;82.77
38225;BME280;24025;48.138;11.428;2023-04-23T08:35:31;95023.91;;;14.32;80.08
38225;BME280;24025;48.138;11.428;2023-04-23T08:38:02;95022.28;;;14.42;80.21
38225;BME280;24025;48.138;11.428;2023-04-23T08:40:35;95020.66;;;14.52;78.72
38225;BME280;24025;48.138;11.428;2023-04-23T08:43:17;95030.94;;;14.60;77.62
38225;BME280;24025;48.138;11.428;2023-04-23T08:45:49;95027.56;;;14.53;76.89
38225;BME280;24025;48.138;11.428;2023-04-23T08:48:21;95030.31;;;14.45;79.13
38225;BME280;24025;48.138;11.428;2023-04-23T08:50:52;95029.06;;;14.54;77.36
38225;BME280;24025;48.138;11.428;2023-04-23T08:53:25;95021.31;;;14.63;77.34
38225;BME280;24025;48.138;11.428;2023-04-23T08:56:00;95021.19;;;14.36;75.93
38225;BME280;24025;48.138;11.428;2023-04-23T08:58:33;95014.75;;;14.67;78.19
38225;BME280;24025;48.138;11.428;2023-04-23T09:01:06;95018.41;;;14.84;76.89
38225;BME280;24025;48.138;11.428;2023-04-23T09:03:39;95018.53;;;15.04;76.11
38225;BME280;24025;48.138;11.428;2023-04-23T09:06:11;95014.03;;;15.24;73.35
38225;BME280;24025;48.138;11.428;2023-04-23T09:08:43;95011.88;;;15.43;75.39
38225;BME280;24025;48.138;11.428;2023-04-23T09:11:16;95016.41;;;15.46;71.84
38225;BME280;24025;48.138;11.428;2023-04-23T09:13:48;95009.25;;;15.66;70.28
38225;BME280;24025;48.138;11.428;2023-04-23T09:16:19;95010.16;;;15.56;67.72
38225;BME280;24025;48.138;11.428;2023-04-23T09:18:51;95008.47;;;15.39;69.27
38225;BME280;24025;48.138;11.428;2023-04-23T09:21:23;95010.41;;;15.38;69.36
38225;BME280;24025;48.138;11.428;2023-04-23T09:23:54;95018.16;;;15.59;68.98
38225;BME280;24025;48.138;11.428;2023-04-23T09:26:26;95003.88;;;15.66;69.17
38225;BME280;24025;48.138;11.428;2023-04-23T09:28:57;95005.28;;;15.74;69.81
38225;BME280;24025;48.138;11.428;2023-04-23T09:31:29;95004.88;;;15.49;68.54
38225;BME280;24025;48.138;11.428;2023-04-23T09:34:00;95002.28;;;15.42;68.58
38225;BME280;24025;48.138;11.428;2023-04-23T09:36:32;94988.75;;;15.49;67.55
38225;BME280;24025;48.138;11.428;2023-04-23T09:39:11;94987.78;;;15.63;68.48
38225;BME280;24025;48.138;11.428;2023-04-23T09:41:44;94994.53;;;15.74;67.87
38225;BME280;24025;48.138;11.428;2023-04-23T09:44:20;94987.63;;;15.97;68.92
38225;BME280;24025;48.138;11.428;2023-04-23T09:46:54;94987.41;;;16.11;67.68
38225;BME280;24025;48.138;11.428;2023-04-23T09:49:25;94984.09;;;16.23;67.94
38225;BME280;24025;48.138;11.428;2023-04-23T09:52:04;94982.13;;;16.27;66.74
38225;BME280;24025;48.138;11.428;2023-04-23T09:54:36;94979.47;;;16.24;67.57
38225;BME280;24025;48.138;11.428;2023-04-23T09:57:08;94981.94;;;16.38;65.14
38225;BME280;24025;48.138;11.428;2023-04-23T09:59:41;94973.66;;;16.49;63.52
38225;BME280;24025;48.138;11.428;2023-04-23T10:02:26;94966.97;;;16.57;66.95
38225;BME280;24025;48.138;11.428;2023-04-23T10:04:58;94967.25;;;16.82;67.70
38225;BME280;24025;48.138;11.428;2023-04-23T10:07:45;94964.00;;;16.91;67.30
38225;BME280;24025;48.138;11.428;2023-04-23T10:10:19;94958.38;;;17.02;64.74
38225;BME280;24025;48.138;11.428;2023-04-23T10:12:52;94961.78;;;17.06;65.14
38225;BME280;24025;48.138;11.428;2023-04-23T10:15:26;94961.44;;;17.20;62.96
38225;BME280;24025;48.138;11.428;2023-04-23T10:17:58;94954.66;;;17.32;65.01
38225;BME280;24025;48.138;11.428;2023-04-23T10:20:30;94955.31;;;17.36;63.60
38225;BME280;24025;48.138;11.428;2023-04-23T10:23:02;94955.94;;;17.43;65.15
38225;BME280;24025;48.138;11.428;2023-04-23T10:25:37;94941.94;;;17.48;63.21
38225;BME280;24025;48.138;11.428;2023-04-23T10:28:09;94945.00;;;17.50;61.46
38225;BME280;24025;48.138;11.428;2023-04-23T10:30:43;94946.91;;;17.66;63.12
38225;BME280;24025;48.138;11.428;2023-04-23T10:33:15;94946.56;;;17.64;62.00
38225;BME280;24025;48.138;11.428;2023-04-23T10:36:00;94932.19;;;17.71;62.83
38225;BME280;24025;48.138;11.428;2023-04-23T10:38:31;94942.66;;;17.85;62.69
38225;BME280;24025;48.138;11.428;2023-04-23T10:41:06;94939.91;;;18.01;60.86
38225;BME280;24025;48.138;11.428;2023-04-23T10:43:39;94931.81;;;18.01;58.85
38225;BME280;24025;48.138;11.428;2023-04-23T10:46:30;94926.47;;;17.85;60.27
38225;BME280;24025;48.138;11.428;2023-04-23T10:49:12;94924.19;;;18.29;61.84
38225;BME280;24025;48.138;11.428;2023-04-23T10:51:47;94912.16;;;18.59;59.46
38225;BME280;24025;48.138;11.428;2023-04-23T10:54:30;94906.50;;;18.95;58.60
38225;BME280;24025;48.138;11.428;2023-04-23T10:57:04;94906.19;;;19.18;56.69
38225;BME280;24025;48.138;11.428;2023-04-23T10:59:50;94904.13;;;19.22;56.10
38225;BME280;24025;48.138;11.428;2023-04-23T11:02:23;94898.50;;;19.17;56.67
38225;BME280;24025;48.138;11.428;2023-04-23T11:04:56;94894.03;;;19.48;56.98
38225;BME280;24025;48.138;11.428;2023-04-23T11:07:30;94884.72;;;19.75;58.01
38225;BME280;24025;48.138;11.428;2023-04-23T11:10:12;94879.91;;;19.92;53.73
38225;BME280;24025;48.138;11.428;2023-04-23T11:12:44;94880.34;;;19.90;52.85
38225;BME280;24025;48.138;11.428;2023-04-23T11:15:17;94879.56;;;19.55;54.16
38225;BME280;24025;48.138;11.428;2023-04-23T11:20:23;94877.72;;;19.39;54.92
38225;BME280;24025;48.138;11.428;2023-04-23T11:22:55;94876.31;;;19.60;53.92
38225;BME280;24025;48.138;11.428;2023-04-23T11:25:27;94869.38;;;19.59;54.54
38225;BME280;24025;48.138;11.428;2023-04-23T11:28:00;94862.19;;;19.78;53.78
38225;BME280;24025;48.138;11.428;2023-04-23T11:30:32;94861.25;;;19.72;51.63
38225;BME280;24025;48.138;11.428;2023-04-23T11:33:03;94868.28;;;19.69;52.06
38225;BME280;24025;48.138;11.428;2023-04-23T11:35:36;94863.56;;;20.17;53.93
38225;BME280;24025;48.138;11.428;2023-04-23T11:38:11;94855.13;;;20.37;50.86
38225;BME280;24025;48.138;11.428;2023-04-23T11:40:45;94853.28;;;20.34;52.05
38225;BME280;24025;48.138;11.428;2023-04-23T11:43:19;94849.19;;;20.29;51.57
38225;BME280;24025;48.138;11.428;2023-04-23T11:45:51;94842.97;;;20.42;51.55
38225;BME280;24025;48.138;11.428;2023-04-23T11:48:23;94849.53;;;20.53;50.59
38225;BME280;24025;48.138;11.428;2023-04-23T11:50:56;94835.00;;;20.69;50.26
38225;BME280;24025;48.138;11.428;2023-04-23T11:53:27;94828.31;;;20.92;49.36
38225;BME280;24025;48.138;11.428;2023-04-23T11:56:00;94823.38;;;21.00;47.09
38225;BME280;24025;48.138;11.428;2023-04-23T11:58:32;94814.72;;;21.23;48.44
38225;BME280;24025;48.138;11.428;2023-04-23T12:01:04;94812.34;;;21.34;48.25
38225;BME280;24025;48.138;11.428;2023-04-23T12:03:35;94809.66;;;21.43;47.71
38225;BME280;24025;48.138;11.428;2023-04-23T12:06:07;94805.34;;;21.15;47.43
38225;BME280;24025;48.138;11.428;2023-04-23T12:08:39;94794.13;;;21.44;48.27
38225;BME280;24025;48.138;11.428;2023-04-23T12:11:13;94807.22;;;21.45;45.97
38225;BME280;24025;48.138;11.428;2023-04-23T12:13:45;94795.78;;;21.41;47.26
38225;BME280;24025;48.138;11.428;2023-04-23T12:16:33;94794.53;;;21.24;48.36
38225;BME280;24025;48.138;11.428;2023-04-23T12:19:29;94794.88;;;20.86;48.05
38225;BME280;24025;48.138;11.428;2023-04-23T12:22:02;94786.47;;;21.02;45.61
38225;BME280;24025;48.138;11.428;2023-04-23T12:24:46;94781.25;;;21.17;47.37
38225;BME280;24025;48.138;11.428;2023-04-23T12:27:19;94778.88;;;21.37;47.76
38225;BME280;24025;48.138;11.428;2023-04-23T12:30:01;94775.28;;;21.31;45.23
38225;BME280;24025;48.138;11.428;2023-04-23T12:32:37;94770.78;;;21.56;46.78
38225;BME280;24025;48.138;11.428;2023-04-23T12:35:09;94768.81;;;21.93;45.64
38225;BME280;24025;48.138;11.428;2023-04-23T12:37:41;94758.53;;;21.88;44.77
38225;BME280;24025;48.138;11.428;2023-04-23T12:40:13;94757.50;;;21.85;43.75
38225;BME280;24025;48.138;11.428;2023-04-23T12:42:44;94757.22;;;21.65;45.17
38225;BME280;24025;48.138;11.428;2023-04-23T12:45:16;94753.09;;;22.06;46.57
38225;BME280;24025;48.138;11.428;2023-04-23T12:47:47;94757.72;;;22.33;44.78
38225;BME280;24025;48.138;11.428;2023-04-23T12:50:19;94746.25;;;22.38;43.89
38225;BME280;24025;48.138;11.428;2023-04-23T12:52:50;94745.59;;;21.92;42.36
38225;BME280;24025;48.138;11.428;2023-04-23T12:55:22;94745.56;;;22.10;43.81
38225;BME280;24025;48.138;11.428;2023-04-23T12:57:53;94746.91;;;22.15;43.33
38225;BME280;24025;48.138;11.428;2023-04-23T13:00:25;94740.72;;;22.14;43.18
38225;BME280;24025;48.138;11.428;2023-04-23T13:02:57;94732.66;;;22.38;41.96
38225;BME280;24025;48.138;11.428;2023-04-23T13:05:29;94726.66;;;22.67;42.68
38225;BME280;24025;48.138;11.428;2023-04-23T13:08:00;94720.06;;;23.16;42.23
38225;BME280;24025;48.138;11.428;2023-04-23T13:10:32;94714.22;;;23.47;39.76
38225;BME280;24025;48.138;11.428;2023-04-23T13:13:04;94705.22;;;23.80;38.55
38225;BME280;24025;48.138;11.428;2023-04-23T13:15:36;94704.91;;;23.63;40.10
38225;BME280;24025;48.138;11.428;2023-04-23T13:18:08;94699.66;;;23.74;40.30
38225;BME280;24025;48.138;11.428;2023-04-23T13:20:39;94700.31;;;23.69;39.78